ENSK Airport Information

Runway Information
Runway 08 Length 3031 ft width 98 ft
Elevation 8 ft Threshold ft Heading 86
Runway 26 Length 3031 ft Width 98 ft
Elevation 11 ft Threshold ft Heading 266
Airport Frequencies
Airport Navaids
Type VOR-DME Name Skagen Frequency 112800 KHZ
Airport Weather Information & NOTAM
ADDS - METARS form results

(0714 UTC 16 August 2022)
Data provider http://aviationweather.gov/metar/data/
 
METAR text: ENSK 160650Z 17007KT 9999 VCSH FEW045 SCT070 BKN110 18/14 Q1006
Conditions at: ENSK (STORKMARKNES/SKA, NO) observed 0650 UTC 16 August 2022
Temperature: 18.0°C (64°F)
Dewpoint: 14.0°C (57°F) [RH = 77%]
Pressure (altimeter): 29.70 inches Hg (1006.0 mb)
Winds: from the S (170 degrees) at 8 MPH (7 knots; 3.6 m/s)
Visibility: 6 or more miles (10+ km)
Ceiling: 11000 feet AGL
Clouds: few clouds at 4500 feet AGL
scattered clouds at 7000 feet AGL
broken clouds at 11000 feet AGL
Weather: VCSH  (showers in vicinity)

METAR text: ENSK 160620Z 15009KT 9999 FEW045 SCT070 BKN130 18/14 Q1006
Conditions at: ENSK (STORKMARKNES/SKA, NO) observed 0620 UTC 16 August 2022
Temperature: 18.0°C (64°F)
Dewpoint: 14.0°C (57°F) [RH = 77%]
Pressure (altimeter): 29.70 inches Hg (1006.0 mb)
Winds: from the SSE (150 degrees) at 10 MPH (9 knots; 4.6 m/s)
Visibility: 6 or more miles (10+ km)
Ceiling: 13000 feet AGL
Clouds: few clouds at 4500 feet AGL
scattered clouds at 7000 feet AGL
broken clouds at 13000 feet AGL
Weather: no significant weather observed at this time